• Join FlightAware (Why Join?)
  • Login
  • US Flag 
02:55AM EDT


 

Airport Tracker/Info


-or-


 

Live Flight TrackerFlight Track Log ✈ UAL4295 ✈ 28-Apr-2013 ✈ KEWR - KMCI

Flight Track Log - Related Links

Times and Time Zones

All times are in EDT time to prevent confusion due to time zone crossing. See the UAL4295 flight status page for this flight to view local times or setup timezone preferences in your user account.

Time Position Orientation Groundspeed Altitude Reporting Facility
EDT Latitude Longitude Course Direction KTS MPH feet Rate Location/Type
07:10PM 40.6667 -74.1833 276° West 162 186 800  Level New York TRACON
07:11PM 40.6333 -74.2000 201° Southwest 216 249 2,500 2,220 Climbing New York TRACON
07:12PM 40.6500 -74.3000 282° West 258 297 5,300 2,580 Climbing New York TRACON
07:13PM 40.6833 -74.3833 298° West 274 315 7,700 2,520 Climbing New York TRACON
07:14PM 40.7478 -74.6762 277° West  Level FlightAware Approximate
07:14PM 40.7000 -74.4833 282° West 280 322 10,400  Level New York TRACON
07:15PM 40.7584 -74.8084 276° West  Level FlightAware Approximate
07:15PM 40.7167 -74.6000 281° West 313 360 11,500  Level New York TRACON
07:15PM 40.7214 -74.6344 280° West 330 380 11,800 1,080 Climbing New York Center
07:16PM 40.7386 -74.7450 282° West 342 394 13,000 1,380 Climbing New York Center
07:17PM 40.7628 -74.8889 283° West 361 415 14,600 2,040 Climbing New York Center
07:18PM 40.7836 -75.0053 283° West 367 422 17,200 1,920 Climbing New York Center
07:19PM 40.8000 -75.1297 280° West 362 417 18,500 1,260 Climbing New York Center
07:20PM 40.7847 -75.2547 261° West 351 404 19,800 1,320 Climbing New York Center
07:21PM 40.7656 -75.3794 259° West 346 398 21,100 1,140 Climbing New York Center
07:22PM 40.7206 -75.5133 246° West 352 405 22,100 960 Climbing New York Center
07:23PM 40.6739 -75.6361 243° Southwest 364 419 23,100 960 Climbing New York Center
07:24PM 40.6250 -75.7583 242° Southwest 373 429 24,100 900 Climbing New York Center
07:25PM 40.5778 -75.8861 244° Southwest 378 435 25,000 840 Climbing New York Center
07:26PM 40.5333 -75.9975 242° Southwest 388 447 25,900 960 Climbing New York Center
07:27PM 40.4861 -76.1222 244° Southwest 388 447 26,900 960 Climbing New York Center
07:28PM 40.4389 -76.2442 243° Southwest 388 447 27,800 780 Climbing New York Center
07:29PM 40.3936 -76.3631 243° Southwest 377 434 28,500 780 Climbing New York Center
07:30PM 40.3586 -76.4883 250° West 377 434 29,500 960 Climbing New York Center
07:31PM 40.3253 -76.6136 251° West 372 428 30,500 960 Climbing New York Center
07:32PM 40.2917 -76.7414 251° West 367 422 31,500 960 Climbing New York Center
07:33PM 40.2603 -76.8667 252° West 367 422 32,400 900 Climbing New York Center
07:34PM 40.2289 -76.9917 252° West 367 422 33,400 960 Climbing New York Center
07:35PM 40.1975 -77.1111 251° West 367 422 34,400 900 Climbing New York Center
07:36PM 40.1661 -77.2306 251° West 360 414 35,300 780 Climbing New York Center
07:37PM 40.1347 -77.3444 250° West 348 400 36,000 300 Climbing New York Center
07:38PM 40.1025 -77.4717 252° West 342 394 36,000  Level New York Center
07:40PM 40.0997 -77.6272 269° West 345 397 36,000  Level Cleveland Center
07:41PM 40.0989 -77.7575 270° West 356 410 36,000  Level Cleveland Center
07:42PM 40.0978 -77.8853 269° West 362 417 36,000 360 Level Cleveland Center
07:43PM 40.0886 -78.0322 265° West 369 425 36,800 480 Climbing Cleveland Center
07:44PM 40.0872 -78.1542 269° West 359 413 37,000 60 Climbing Cleveland Center
07:45PM 40.0939 -78.2789 274° West 348 400 37,000  Level Cleveland Center
07:46PM 40.0964 -78.4064 272° West 348 400 37,000  Level Cleveland Center
07:47PM 40.0986 -78.5311 271° West 348 400 37,000  Level Cleveland Center
07:48PM 40.1011 -78.6614 271° West 348 400 37,000  Level Cleveland Center
07:49PM 40.1072 -78.7889 274° West 348 400 37,000  Level Cleveland Center
07:50PM 40.1092 -78.9192 271° West 348 400 37,000  Level Cleveland Center
07:51PM 40.1111 -79.0494 271° West 353 406 37,000  Level Cleveland Center
07:52PM 40.1128 -79.1797 271° West 359 413 37,000  Level Cleveland Center
07:53PM 40.1164 -79.3100 272° West 364 419 37,000  Level Cleveland Center
07:54PM 40.1197 -79.4428 272° West 364 419 37,000  Level Cleveland Center
07:55PM 40.1231 -79.5703 272° West 364 419 37,000  Level Cleveland Center
07:56PM 40.1264 -79.7033 272° West 364 419 37,000  Level Cleveland Center
07:57PM 40.1272 -79.8364 271° West 364 419 37,000  Level Cleveland Center
07:58PM 40.1281 -79.9667 271° West 364 419 37,000  Level Cleveland Center
07:59PM 40.1328 -80.0942 273° West 364 419 37,000  Level Cleveland Center
08:00PM 40.1311 -80.2247 269° West 364 419 37,000  Level Cleveland Center
08:01PM 40.1317 -80.3550 270° West 364 419 37,000  Level Cleveland Center
08:02PM 40.1339 -80.4825 271° West 359 413 37,000  Level Cleveland Center
08:03PM 40.1358 -80.6156 271° West 365 420 37,000  Level Cleveland Center
08:04PM 40.1381 -80.7461 271° West 365 420 37,000  Level Cleveland Center
08:05PM 40.1378 -80.8736 270° West 359 413 37,000  Level Cleveland Center
08:06PM 40.1347 -81.0692 269° West 365 420 37,000  Level Indianapolis Center
08:07PM 40.1339 -81.2061 270° West 370 426 37,000  Level Indianapolis Center
08:08PM 40.1108 -81.3375 257° West 369 425 37,000  Level Indianapolis Center
08:09PM 40.0975 -81.4914 264° West 366 421 37,000  Level Indianapolis Center
08:10PM 40.0972 -81.6297 270° West 374 430 37,000  Level Indianapolis Center
08:11PM 40.0972 -81.7683 270° West 377 434 37,000  Level Indianapolis Center
08:12PM 40.0975 -81.9097 270° West 382 440 37,000 -120 Level Indianapolis Center
08:13PM 40.0950 -82.0508 269° West 386 444 36,800 -540 Descending Indianapolis Center
08:14PM 40.0736 -82.1889 259° West 385 443 36,000 -420 Descending Indianapolis Center
08:15PM 40.0603 -82.3303 263° West 388 447 36,000  Level Indianapolis Center
08:17PM 40.0475 -82.4717 263° West 388 447 36,000 -60 Level Indianapolis Center
08:18PM 40.0386 -82.6144 265° West 392 451 35,900  Descending Indianapolis Center
08:19PM 40.0344 -82.7586 268° West 394 453 36,000  Climbing Indianapolis Center
08:20PM 40.0350 -82.9292 270° West 399 459 36,000  Level Indianapolis Center
08:21PM 40.0358 -83.0728 270° West 397 457 36,000  Level Indianapolis Center
08:22PM 40.0350 -83.2217 270° West 406 467 36,000  Level Indianapolis Center
08:23PM 40.0353 -83.3694 270° West 409 471 36,000  Level Indianapolis Center
08:24PM 40.0344 -83.5181 270° West 412 474 36,000  Level Indianapolis Center
08:25PM 40.0333 -83.6664 269° West 411 473 36,000  Level Indianapolis Center
08:26PM 40.0325 -83.8136 270° West 407 468 36,000  Level Indianapolis Center
08:27PM 40.0311 -83.9850 269° West 405 466 36,000  Level Indianapolis Center
08:28PM 40.0297 -84.1336 269° West 406 467 36,000  Level Indianapolis Center
08:29PM 40.0286 -84.2847 269° West 411 473 36,000  Level Indianapolis Center
08:30PM 40.0269 -84.4322 269° West 406 467 36,000  Level Indianapolis Center
08:31PM 40.0233 -84.5853 268° West 415 478 36,000  Level Indianapolis Center
08:32PM 40.0208 -84.7353 269° West 413 475 36,000  Level Indianapolis Center
08:33PM 40.0194 -84.9006 269° West 414 476 36,000  Level Indianapolis Center
08:34PM 40.0156 -85.0539 268° West 420 483 36,000  Level Indianapolis Center
08:35PM 40.0131 -85.2075 269° West 421 484 36,000  Level Indianapolis Center
08:36PM 40.0106 -85.3628 269° West 426 490 36,000  Level Indianapolis Center
08:37PM 40.0072 -85.5167 268° West 424 488 36,000  Level Indianapolis Center
08:38PM 40.0033 -85.6708 268° West 425 489 36,000  Level Indianapolis Center
08:39PM 39.9983 -85.8781 268° West 427 491 36,000  Level Indianapolis Center
08:40PM 39.9953 -86.0328 269° West 427 491 36,000  Level Indianapolis Center
08:41PM 39.9914 -86.1356 267° West 430 495 36,000  Level Chicago Center
08:42PM 39.9881 -86.2919 268° West 434 499 36,000  Level Chicago Center
08:43PM 39.9825 -86.4469 267° West 432 497 36,000  Level Chicago Center
08:43PM 39.9811 -86.4986 268° West 431 496 36,000  Level Indianapolis Center
08:44PM 39.9761 -86.6553 268° West 432 497 36,000  Level Indianapolis Center
08:45PM 39.9703 -86.8119 267° West 432 497 36,000  Level Indianapolis Center
08:46PM 39.9650 -86.9656 267° West 427 491 36,000  Level Indianapolis Center
08:47PM 39.9589 -87.1456 268° West 425 489 36,000  Level Indianapolis Center
08:48PM 39.9536 -87.3006 268° West 427 491 36,000  Level Indianapolis Center
08:50PM 39.9475 -87.4558 267° West 428 493 36,000  Level Indianapolis Center
08:51PM 39.9406 -87.6108 267° West 428 493 36,000  Level Indianapolis Center
08:52PM 39.9344 -87.7658 267° West 426 490 36,000  Level Indianapolis Center
08:52PM 39.9303 -87.8956 268° West 427 491 36,000  Level Chicago Center
08:53PM 39.9236 -88.0511 267° West 429 494 36,000  Level Chicago Center
08:54PM 39.9172 -88.1969 267° West 431 496 36,000  Level Chicago Center
08:55PM 39.9106 -88.3533 267° West 431 496 36,000 60 Level Chicago Center
08:56PM 39.9056 -88.4178 264° West 436 502 36,100  Climbing Kansas City Center
08:57PM 39.8975 -88.5733 266° West 433 498 36,000 -60 Descending Kansas City Center
08:58PM 39.8903 -88.7311 267° West 435 501 36,000  Level Kansas City Center
08:59PM 39.8825 -88.8889 266° West 436 502 36,000  Level Kansas City Center
09:00PM 39.8733 -89.0489 266° West 440 506 36,000  Level Kansas City Center
09:01PM 39.8644 -89.2422 267° West 444 511 36,000  Level Kansas City Center
09:02PM 39.8553 -89.4011 266° West 442 509 36,000  Level Kansas City Center
09:03PM 39.8458 -89.5594 266° West 440 506 36,000  Level Kansas City Center
09:04PM 39.8389 -89.7208 267° West 442 509 36,000  Level Kansas City Center
09:05PM 39.8411 -89.8819 271° West 444 511 36,000  Level Kansas City Center
09:06PM 39.8431 -90.0397 271° West 441 507 36,000  Level Kansas City Center
09:07PM 39.8450 -90.1978 271° West 438 504 36,000  Level Kansas City Center
09:08PM 39.8458 -90.3553 270° West 436 502 36,000  Level Kansas City Center
09:09PM 39.8472 -90.5119 271° West 432 497 36,000  Level Kansas City Center
09:10PM 39.8478 -90.6722 270° West 438 504 36,000  Level Kansas City Center
09:11PM 39.8481 -90.8597 270° West 435 501 36,000  Level Kansas City Center
09:12PM 39.8483 -91.0131 270° West 431 496 36,000  Level Kansas City Center
09:13PM 39.8478 -91.1661 270° West 428 493 36,000  Level Kansas City Center
09:14PM 39.8453 -91.3197 269° West 427 491 36,000  Level Kansas City Center
09:15PM 39.8328 -91.4769 264° West 433 498 36,000  Level Kansas City Center
09:16PM 39.8217 -91.6325 265° West 436 502 36,000  Level Kansas City Center
09:17PM 39.8100 -91.7883 264° West 435 501 36,000  Level Kansas City Center
09:18PM 39.7950 -91.9742 264° West 434 499 36,000  Level Kansas City Center
09:19PM 39.7833 -92.1292 264° West 432 497 36,000 -180 Level Kansas City Center
09:20PM 39.7719 -92.2847 265° West 433 498 35,700 -1,320 Descending Kansas City Center
09:21PM 39.7592 -92.4361 264° West 429 494 33,400 -2,400 Descending Kansas City Center
09:22PM 39.7461 -92.5825 263° West 417 480 30,900 -2,340 Descending Kansas City Center
09:23PM 39.7333 -92.7369 264° West 422 486 28,700 -2,160 Descending Kansas City Center
09:25PM 39.7194 -92.8978 264° West 439 505 26,500 -2,340 Descending Kansas City Center
09:26PM 39.7058 -93.0550 264° West 442 509 24,000 -2,520 Descending Kansas City Center
09:27PM 39.6908 -93.2347 264° West 423 487 21,400 -2,340 Descending Kansas City Center
09:28PM 39.6772 -93.3789 263° West 409 471 19,300 -2,100 Descending Kansas City Center
09:29PM 39.6639 -93.5169 263° West 398 458 17,200 -2,040 Descending Kansas City Center
09:30PM 39.6511 -93.6503 263° West 381 438 15,200 -2,100 Descending Kansas City Center
09:31PM 39.6389 -93.7994 264° West 377 434 13,000 -1,920 Descending Kansas City Center
09:32PM 39.6103 -93.9200 253° West 363 418 11,300 -1,140 Descending Kansas City Center
09:33PM 39.5589 -94.0189 236° Southwest 347 399 10,700 -600 Descending Kansas City Center
09:34PM 39.5144 -94.1486 246° West 359 413 10,100 -420 Descending Kansas City Center
09:35PM 39.4958 -94.2533 257° West 301 346 9,900 -1,140 Descending Kansas City Center
09:36PM 39.4747 -94.3581 255° West 271 312 7,900 -1,860 Descending Kansas City Center
09:37PM 39.4581 -94.4472 256° West 266 306 6,200 -1,680 Descending Kansas City Center
09:38PM 39.4569 -94.5367 269° West 258 297 4,500 -1,680 Descending Kansas City Center